Kingsbury, Indiana
Current Conditions -  °F | °C
As of 12:35 AM on Tuesday 21 Oct 2014 (Local Time) from KPPO Reporting Station
Overcast Overcast  
Wind Chill: 52°   Ceiling: 5000
Heat Index: 52°   Visibility: 10mi
Dew Point: 46°   Wind: 8mph
Humidity: 79%   Direction: 350°N
Pressure: 29.97"   Gusts: NA
Location:  41.53°N, 86.7°W
Report Text: KPPO 210535Z AUTO 35007KT 10SM SCT028 SCT034 OVC050 11/08 A2997 RMK AO2 T01130078
Loading
Personal Weather Stations






























Interactive Weather Map
Tropical Storm Tracking
New forecast layout! Learn more

10-Day Weather Forecast

Advertisements
Track Severe Weather on mobile